createdAt,value
2022-08-07T00:02:36.453Z,2.40
2022-08-07T00:05:23.713Z,2.50
2022-08-07T00:08:25.704Z,2.70
2022-08-07T00:11:30.200Z,3.20
2022-08-07T00:14:47.515Z,3.20
2022-08-07T00:17:50.500Z,2.88
2022-08-07T00:20:56.818Z,4.00
2022-08-07T00:23:59.260Z,3.80
2022-08-07T00:27:06.481Z,3.85
2022-08-07T00:30:26.518Z,3.95
2022-08-07T00:33:29.475Z,3.83
2022-08-07T00:36:34.565Z,3.40
2022-08-07T00:39:36.306Z,3.65
2022-08-07T00:42:46.617Z,3.45
2022-08-07T00:45:51.918Z,3.22
2022-08-07T00:48:54.252Z,3.55
2022-08-07T00:51:56.909Z,3.92
2022-08-07T00:54:59.642Z,3.90
2022-08-07T00:58:06.911Z,4.50
2022-08-07T01:01:08.659Z,4.05
2022-08-07T01:04:10.281Z,4.07
2022-08-07T01:07:12.980Z,4.00
2022-08-07T01:10:15.304Z,4.43
2022-08-07T01:13:20.208Z,4.30
2022-08-07T01:16:29.959Z,4.55
2022-08-07T01:19:34.226Z,4.10
2022-08-07T01:22:54.065Z,4.10
2022-08-07T01:26:05.100Z,4.43
2022-08-07T01:29:08.050Z,4.05
2022-08-07T01:32:13.353Z,4.60
2022-08-07T01:35:18.328Z,5.05
2022-08-07T01:38:29.302Z,4.53
2022-08-07T01:41:35.530Z,4.40
2022-08-07T01:44:38.833Z,4.53
2022-08-07T01:48:19.666Z,4.32
2022-08-07T01:51:24.224Z,4.50
2022-08-07T01:54:36.802Z,4.38
2022-08-07T01:58:01.274Z,4.53
2022-08-07T02:01:59.218Z,4.60
2022-08-07T02:05:05.310Z,4.50
2022-08-07T02:08:14.780Z,5.10
2022-08-07T02:11:30.957Z,4.88
2022-08-07T02:14:41.311Z,4.97
2022-08-07T02:17:53.575Z,4.90
2022-08-07T02:20:57.768Z,4.80
2022-08-07T02:24:00.545Z,4.95
2022-08-07T02:27:04.461Z,5.10
2022-08-07T02:30:08.670Z,4.55
2022-08-07T02:33:12.749Z,5.15
2022-08-07T02:36:29.576Z,4.57
2022-08-07T02:40:02.231Z,5.10
2022-08-07T02:43:07.991Z,4.95
2022-08-07T02:46:11.679Z,5.10
2022-08-07T02:49:28.920Z,4.85
2022-08-07T02:52:52.865Z,5.05
2022-08-07T02:56:03.219Z,5.28
2022-08-07T02:59:11.824Z,5.18
2022-08-07T03:02:15.025Z,5.30
2022-08-07T03:05:20.774Z,5.00
2022-08-07T03:08:26.875Z,4.75
2022-08-07T03:11:38.783Z,5.13
2022-08-07T03:14:52.017Z,5.18
2022-08-07T03:17:54.528Z,5.13
2022-08-07T03:21:00.004Z,5.22
2022-08-07T03:24:18.998Z,4.70
2022-08-07T03:27:30.116Z,5.13
2022-08-07T03:30:35.524Z,4.88
2022-08-07T03:33:40.178Z,5.05
2022-08-07T03:36:45.697Z,4.97
2022-08-07T03:40:07.305Z,4.70
2022-08-07T03:43:13.834Z,5.00
2022-08-07T03:46:22.600Z,5.28
2022-08-07T03:49:29.632Z,5.07
2022-08-07T03:52:32.334Z,4.85
2022-08-07T03:55:58.044Z,4.63
2022-08-07T03:59:09.283Z,4.90
2022-08-07T04:02:16.518Z,5.43
2022-08-07T04:05:24.025Z,4.68
2022-08-07T04:08:32.640Z,4.95
2022-08-07T04:12:24.266Z,4.90
2022-08-07T04:14:59.588Z,4.82
2022-08-07T04:18:31.964Z,5.15
2022-08-07T04:21:26.415Z,5.15
2022-08-07T04:24:39.269Z,5.47
2022-08-07T04:27:59.302Z,4.93
2022-08-07T04:31:04.628Z,5.07
2022-08-07T04:34:16.472Z,5.00
2022-08-07T04:37:20.750Z,4.85
2022-08-07T04:40:29.813Z,5.40
2022-08-07T04:44:11.742Z,4.70
2022-08-07T04:51:14.056Z,4.82
2022-08-07T04:54:33.988Z,5.40
2022-08-07T04:58:33.614Z,5.25
2022-08-07T05:01:50.635Z,5.18
2022-08-07T05:05:02.646Z,4.70
2022-08-07T05:08:59.651Z,4.70
2022-08-07T05:11:56.892Z,4.90
2022-08-07T05:15:23.600Z,4.85
2022-08-07T05:18:34.196Z,4.82
2022-08-07T05:25:00.591Z,4.93
2022-08-07T05:28:20.874Z,4.95
2022-08-07T05:31:34.801Z,4.88
2022-08-07T05:34:40.748Z,4.60
2022-08-07T05:37:45.628Z,5.20
2022-08-07T05:41:14.318Z,4.50
2022-08-07T05:44:29.289Z,4.82
2022-08-07T05:48:01.792Z,4.78
2022-08-07T05:50:59.373Z,4.43
2022-08-07T05:54:12.866Z,4.03
2022-08-07T05:57:30.282Z,4.28
2022-08-07T06:00:37.348Z,4.78
2022-08-07T06:07:07.065Z,3.90
2022-08-07T06:10:15.429Z,3.65
2022-08-07T06:14:10.573Z,3.85
2022-08-07T06:16:45.762Z,3.95
2022-08-07T06:20:03.331Z,3.88
2022-08-07T06:23:25.098Z,3.50
2022-08-07T06:26:30.409Z,3.30
2022-08-07T06:29:39.006Z,3.60
2022-08-07T06:32:42.173Z,3.42
2022-08-07T06:36:06.283Z,4.07
2022-08-07T06:40:16.058Z,3.55
2022-08-07T06:42:37.380Z,3.90
2022-08-07T06:45:44.338Z,4.05
2022-08-07T06:48:47.248Z,4.13
2022-08-07T06:52:02.950Z,3.97
2022-08-07T06:55:34.547Z,3.72
2022-08-07T06:58:41.340Z,3.90
2022-08-07T07:02:05.972Z,3.60
2022-08-07T07:05:08.387Z,3.70
2022-08-07T07:08:18.634Z,4.13
2022-08-07T07:12:07.484Z,4.00
2022-08-07T07:15:00.464Z,3.60
2022-08-07T07:18:43.094Z,4.10
2022-08-07T07:22:04.569Z,3.90
2022-08-07T07:26:31.497Z,4.00
2022-08-07T07:28:48.284Z,3.55
2022-08-07T07:32:01.830Z,3.70
2022-08-07T07:35:06.664Z,3.78
2022-08-07T07:38:12.163Z,3.95
2022-08-07T07:41:17.586Z,3.70
2022-08-07T07:44:26.068Z,3.40
2022-08-07T07:47:30.093Z,3.50
2022-08-07T07:50:47.571Z,4.13
2022-08-07T07:53:53.744Z,3.03
2022-08-07T07:56:57.390Z,3.60
2022-08-07T08:00:02.170Z,3.10
2022-08-07T08:04:10.574Z,3.60
2022-08-07T08:06:50.980Z,3.53
2022-08-07T08:10:05.393Z,3.08
2022-08-07T08:13:14.963Z,3.40
2022-08-07T08:16:25.148Z,3.20
2022-08-07T08:20:18.690Z,3.20
2022-08-07T08:23:14.440Z,3.20
2022-08-07T08:26:36.873Z,2.80
2022-08-07T08:29:54.543Z,3.00
2022-08-07T08:33:01.769Z,3.00
2022-08-07T08:36:06.650Z,2.65
2022-08-07T08:39:10.275Z,2.70
2022-08-07T08:42:33.158Z,2.50
2022-08-07T08:45:59.128Z,2.10
2022-08-07T08:49:13.238Z,2.45
2022-08-07T08:52:22.428Z,2.28
2022-08-07T08:55:53.256Z,2.28
2022-08-07T08:59:25.930Z,1.95
2022-08-07T09:02:49.554Z,1.90
2022-08-07T09:06:26.966Z,2.20
2022-08-07T09:09:41.740Z,2.10
2022-08-07T09:13:02.010Z,1.65
2022-08-07T09:16:39.427Z,1.52
2022-08-07T09:20:00.845Z,1.50
2022-08-07T09:24:29.074Z,1.70
2022-08-07T09:26:53.182Z,1.48
2022-08-07T09:30:08.971Z,1.50
2022-08-07T09:33:56.660Z,1.50
2022-08-07T09:37:18.266Z,1.48
2022-08-07T09:40:28.623Z,1.50
2022-08-07T09:44:05.320Z,1.50
2022-08-07T09:47:59.552Z,1.40
2022-08-07T09:50:59.744Z,1.33
2022-08-07T09:54:03.688Z,1.13
2022-08-07T09:57:37.523Z,1.00
2022-08-07T10:01:50.474Z,1.40
2022-08-07T10:05:12.488Z,1.38
2022-08-07T10:08:21.463Z,1.23
2022-08-07T10:12:00.319Z,1.10
2022-08-07T10:15:44.367Z,1.48
2022-08-07T10:19:11.369Z,1.50
2022-08-07T10:22:43.147Z,1.50
2022-08-07T10:26:11.777Z,1.60
2022-08-07T10:29:31.966Z,1.52
2022-08-07T10:32:52.342Z,1.40
2022-08-07T10:36:29.911Z,1.50
2022-08-07T10:40:02.647Z,1.23
2022-08-07T10:43:34.455Z,1.30
2022-08-07T10:46:49.571Z,1.35
2022-08-07T10:50:04.815Z,1.33
2022-08-07T10:53:27.645Z,1.20
2022-08-07T10:57:13.137Z,1.30
2022-08-07T11:00:36.532Z,1.30
2022-08-07T11:04:16.998Z,1.30
2022-08-07T11:07:58.651Z,1.40
2022-08-07T11:11:10.337Z,1.20
2022-08-07T11:14:44.578Z,1.33
2022-08-07T11:18:03.651Z,1.35
2022-08-07T11:21:28.414Z,1.20
2022-08-07T11:24:45.382Z,1.30
2022-08-07T11:28:09.367Z,1.40
2022-08-07T11:31:30.463Z,1.27
2022-08-07T11:34:45.321Z,1.20
2022-08-07T11:38:12.795Z,1.40
2022-08-07T11:42:01.882Z,1.25
2022-08-07T11:45:20.283Z,1.40
2022-08-07T11:49:50.716Z,1.20
2022-08-07T11:52:29.100Z,1.20
2022-08-07T11:56:26.136Z,1.10
2022-08-07T12:00:10.112Z,1.20
2022-08-07T12:03:45.083Z,1.25
2022-08-07T12:07:00.397Z,1.10
2022-08-07T12:10:19.289Z,1.10
2022-08-07T12:13:37.175Z,1.20
2022-08-07T12:16:48.315Z,1.05
2022-08-07T12:20:09.526Z,1.10
2022-08-07T12:24:07.398Z,1.17
2022-08-07T12:27:18.518Z,1.10
2022-08-07T12:30:34.821Z,1.15
2022-08-07T12:34:01.126Z,1.08
2022-08-07T12:37:00.850Z,1.00
2022-08-07T12:40:04.256Z,1.25
2022-08-07T12:44:01.735Z,1.10
2022-08-07T12:46:59.706Z,1.20
2022-08-07T12:50:39.172Z,1.00
2022-08-07T12:54:37.227Z,1.00
2022-08-07T12:57:59.295Z,1.17
2022-08-07T13:01:03.284Z,1.10
2022-08-07T13:04:34.242Z,1.10
2022-08-07T13:08:12.265Z,1.10
2022-08-07T13:11:19.603Z,1.05
2022-08-07T13:14:59.353Z,1.10
2022-08-07T13:18:30.656Z,1.10
2022-08-07T13:21:54.962Z,1.20
2022-08-07T13:25:23.931Z,1.23
2022-08-07T13:28:37.873Z,1.10
2022-08-07T13:32:32.668Z,1.10
2022-08-07T13:36:01.371Z,1.10
2022-08-07T13:39:48.916Z,1.10
2022-08-07T13:42:48.622Z,1.00
2022-08-07T13:46:12.188Z,1.20
2022-08-07T13:50:33.526Z,1.17
2022-08-07T13:52:47.052Z,1.00
2022-08-07T13:55:54.861Z,1.20
2022-08-07T13:59:05.636Z,1.20
2022-08-07T14:02:21.131Z,1.20
2022-08-07T14:05:38.046Z,1.33
2022-08-07T14:08:45.392Z,1.10
2022-08-07T14:12:01.025Z,1.10
2022-08-07T14:15:10.450Z,1.10
2022-08-07T14:18:28.818Z,1.20
2022-08-07T14:22:02.997Z,1.20
2022-08-07T14:25:13.287Z,1.30
2022-08-07T14:28:18.300Z,1.20
2022-08-07T14:31:24.942Z,1.02
2022-08-07T14:34:52.514Z,1.10
2022-08-07T14:38:03.194Z,1.20
2022-08-07T14:41:15.118Z,1.20
2022-08-07T14:44:18.913Z,1.10
2022-08-07T14:47:23.471Z,1.20
2022-08-07T14:50:29.238Z,1.20
2022-08-07T14:54:08.640Z,1.20
2022-08-07T14:57:11.561Z,1.00
2022-08-07T15:00:34.911Z,1.30
2022-08-07T15:03:51.418Z,1.10
2022-08-07T15:06:54.218Z,1.10
2022-08-07T15:10:02.020Z,1.30
2022-08-07T15:13:25.439Z,1.20
2022-08-07T15:16:42.604Z,1.20
2022-08-07T15:25:15.013Z,1.27
2022-08-07T15:26:57.905Z,1.20
2022-08-07T15:33:33.624Z,1.10
2022-08-07T15:37:04.378Z,1.30
2022-08-07T15:40:05.094Z,1.23
2022-08-07T15:43:52.865Z,1.30
2022-08-07T15:50:04.159Z,1.48
2022-08-07T15:53:16.059Z,1.30
2022-08-07T15:56:33.102Z,1.13
2022-08-07T15:59:39.255Z,1.17
2022-08-07T16:02:47.673Z,1.25
2022-08-07T16:05:54.188Z,1.23
2022-08-07T16:09:03.305Z,1.33
2022-08-07T16:12:29.151Z,1.60
2022-08-07T16:15:58.729Z,1.33
2022-08-07T16:19:42.692Z,1.42
2022-08-07T16:23:53.553Z,1.27
2022-08-07T16:27:18.197Z,1.40
2022-08-07T16:30:31.716Z,1.30
2022-08-07T16:34:03.082Z,1.50
2022-08-07T16:38:04.005Z,1.42
2022-08-07T16:41:41.107Z,1.40
2022-08-07T16:45:24.681Z,1.50
2022-08-07T16:49:04.013Z,1.40
2022-08-07T16:52:52.317Z,1.50
2022-08-07T16:56:10.395Z,1.23
2022-08-07T16:59:47.101Z,1.40
2022-08-07T17:03:11.112Z,1.45
2022-08-07T17:06:44.303Z,1.25
2022-08-07T17:10:07.381Z,1.30
2022-08-07T17:13:16.398Z,1.27
2022-08-07T17:16:22.050Z,1.30
2022-08-07T17:20:02.015Z,1.52
2022-08-07T17:23:23.109Z,1.50
2022-08-07T17:26:51.388Z,1.30
2022-08-07T17:30:15.861Z,1.40
2022-08-07T17:34:09.283Z,1.20
2022-08-07T17:37:16.116Z,1.20
2022-08-07T17:40:56.628Z,1.13
2022-08-07T17:44:34.047Z,1.20
2022-08-07T17:48:12.664Z,1.10
2022-08-07T17:51:21.329Z,1.30
2022-08-07T17:54:54.371Z,1.23
2022-08-07T17:58:07.063Z,1.23
2022-08-07T18:01:21.470Z,1.40
2022-08-07T18:04:34.477Z,1.50
2022-08-07T18:07:36.796Z,1.30
2022-08-07T18:12:07.562Z,1.23
2022-08-07T18:14:27.677Z,1.20
2022-08-07T18:18:46.012Z,1.30
2022-08-07T18:21:51.398Z,1.30
2022-08-07T18:25:01.751Z,1.40
2022-08-07T18:28:58.732Z,1.40
2022-08-07T18:32:22.298Z,1.40
2022-08-07T18:35:50.281Z,1.20
2022-08-07T18:40:08.770Z,1.30
2022-08-07T18:43:00.593Z,1.40
2022-08-07T18:46:25.947Z,1.50
2022-08-07T18:50:30.759Z,1.40
2022-08-07T18:53:21.180Z,1.30
2022-08-07T18:56:32.813Z,1.40
2022-08-07T18:59:58.901Z,1.50
2022-08-07T19:03:12.351Z,1.40
2022-08-07T19:06:21.800Z,1.48
2022-08-07T19:09:57.625Z,1.40
2022-08-07T19:13:21.670Z,1.65
2022-08-07T19:17:08.584Z,1.80
2022-08-07T19:20:29.229Z,2.47
2022-08-07T19:23:58.712Z,2.35
2022-08-07T19:28:29.621Z,2.60
2022-08-07T19:31:06.452Z,2.15
2022-08-07T19:33:58.381Z,1.90
2022-08-07T19:37:09.909Z,1.80
2022-08-07T19:40:31.532Z,1.75
2022-08-07T19:43:48.592Z,1.90
2022-08-07T19:47:04.115Z,2.00
2022-08-07T19:50:45.163Z,1.98
2022-08-07T19:54:31.144Z,2.03
2022-08-07T19:57:56.753Z,2.17
2022-08-07T20:00:28.706Z,2.00
2022-08-07T20:03:34.092Z,1.90
2022-08-07T20:06:42.794Z,2.08
2022-08-07T20:10:36.151Z,1.80
2022-08-07T20:13:22.630Z,2.05
2022-08-07T20:16:35.174Z,2.00
2022-08-07T20:19:48.286Z,2.05
2022-08-07T20:23:41.837Z,2.00
2022-08-07T20:26:52.188Z,1.95
2022-08-07T20:30:00.294Z,1.90
2022-08-07T20:33:04.952Z,2.00
2022-08-07T20:36:13.330Z,1.90
2022-08-07T20:40:01.388Z,1.90
2022-08-07T20:42:56.214Z,2.10
2022-08-07T20:46:25.832Z,2.00
2022-08-07T20:49:59.230Z,2.13
2022-08-07T20:52:50.581Z,1.73
2022-08-07T20:55:59.983Z,2.10
2022-08-07T20:59:05.368Z,1.85
2022-08-07T21:02:38.399Z,2.30
2022-08-07T21:05:54.536Z,2.10
2022-08-07T21:09:13.743Z,2.30
2022-08-07T21:12:26.021Z,1.88
2022-08-07T21:15:58.027Z,2.10
2022-08-07T21:18:57.590Z,1.83
2022-08-07T21:22:04.997Z,2.13
2022-08-07T21:25:20.587Z,2.40
2022-08-07T21:28:48.342Z,2.20
2022-08-07T21:32:46.721Z,2.28
2022-08-07T21:35:34.721Z,2.25
2022-08-07T21:39:47.016Z,2.28
2022-08-07T21:42:56.516Z,2.45
2022-08-07T21:46:31.491Z,2.50
2022-08-07T21:50:02.900Z,2.40
2022-08-07T21:53:16.222Z,2.22
2022-08-07T21:56:48.968Z,2.45
2022-08-07T22:00:23.005Z,2.60
2022-08-07T22:03:32.031Z,2.30
2022-08-07T22:06:44.982Z,2.35
2022-08-07T22:09:54.140Z,2.95
2022-08-07T22:13:02.796Z,2.55
2022-08-07T22:16:39.685Z,2.50
2022-08-07T22:20:00.402Z,2.33
2022-08-07T22:23:17.459Z,3.15
2022-08-07T22:26:29.872Z,2.78
2022-08-07T22:29:48.089Z,2.80
2022-08-07T22:33:04.419Z,2.85
2022-08-07T22:36:40.671Z,2.50
2022-08-07T22:40:16.372Z,2.47
2022-08-07T22:43:27.878Z,2.90
2022-08-07T22:47:05.985Z,2.90
2022-08-07T22:50:39.720Z,2.97
2022-08-07T22:54:11.691Z,2.95
2022-08-07T22:57:46.107Z,2.92
2022-08-07T23:01:09.240Z,2.92
2022-08-07T23:04:33.341Z,2.88
2022-08-07T23:08:24.471Z,3.03
2022-08-07T23:11:50.836Z,3.13
2022-08-07T23:16:04.536Z,2.85
2022-08-07T23:19:38.817Z,3.00
2022-08-07T23:22:59.054Z,3.05
2022-08-07T23:26:09.956Z,3.25
2022-08-07T23:30:38.189Z,3.08
2022-08-07T23:34:35.597Z,3.40
2022-08-07T23:37:20.030Z,3.17
2022-08-07T23:40:41.241Z,3.70
2022-08-07T23:44:00.881Z,3.03
2022-08-07T23:47:17.703Z,3.10
2022-08-07T23:50:43.490Z,3.60
2022-08-07T23:53:56.089Z,3.40
2022-08-07T23:57:13.991Z,3.40
